Time;durP1;ratioP1;P1;durP2;ratioP2;P2;SDS_P1;SDS_P2;PMS_P1;PMS_P2;Temp;Humidity;BMP_temperature;BMP_pressure;BME280_temperature;BME280_humidity;BME280_pressure;Samples;Min_cycle;Max_cycle;Signal;HPM_P1;HPM_P2
2023/10/19 00:00:48;;;;;;;36.03;22.43;;;11.70;99.50;;;;;;5011534;28;20517;-81
2023/10/19 00:03:15;;;;;;;34.63;23.20;;;11.70;99.90;;;;;;5010389;28;20465;-81
2023/10/19 00:05:41;;;;;;;31.73;23.57;;;11.70;98.20;;;;;;5007552;28;20512;-81
2023/10/19 00:10:45;;;;;;;32.57;22.17;;;11.80;98.00;;;;;;5012439;28;20438;-81
2023/10/19 00:13:14;;;;;;;30.53;21.70;;;11.80;98.30;;;;;;5011263;28;20932;-80
2023/10/19 00:16:10;;;;;;;30.40;22.30;;;11.80;98.60;;;;;;5013109;28;20464;-81
2023/10/19 00:18:32;;;;;;;31.53;23.17;;;11.80;99.90;;;;;;5012620;28;20493;-81
2023/10/19 00:21:19;;;;;;;29.67;20.33;;;11.80;98.90;;;;;;5014380;28;20794;-80
2023/10/19 00:23:47;;;;;;;30.57;21.93;;;11.90;98.50;;;;;;5011774;28;20469;-81
2023/10/19 00:26:31;;;;;;;30.23;24.40;;;11.90;99.70;;;;;;5013731;28;20795;-81
2023/10/19 00:28:57;;;;;;;27.87;22.30;;;12.00;99.90;;;;;;5012699;28;20449;-81
2023/10/19 00:31:23;;;;;;;30.63;19.97;;;12.00;99.90;;;;;;5012279;28;20418;-80
2023/10/19 00:33:54;;;;;;;32.93;20.57;;;12.00;98.10;;;;;;5013223;28;21886;-81
2023/10/19 00:36:20;;;;;;;30.90;20.10;;;12.10;98.90;;;;;;5013545;28;20444;-81
2023/10/19 00:41:37;;;;;;;29.57;20.40;;;12.10;97.50;;;;;;5015210;28;20443;-81
2023/10/19 00:44:04;;;;;;;27.50;18.83;;;12.20;98.10;;;;;;5014783;28;20453;-81
2023/10/19 00:46:37;;;;;;;26.03;19.83;;;12.20;98.30;;;;;;5013571;28;20437;-80
2023/10/19 00:49:05;;;;;;;29.63;20.43;;;12.30;99.40;;;;;;5012963;28;20431;-81
2023/10/19 00:54:21;;;;;;;25.67;17.47;;;12.30;96.30;;;;;;5016448;28;20437;-81
2023/10/19 00:56:58;;;;;;;27.43;19.40;;;12.20;95.00;;;;;;5016325;28;20429;-81
2023/10/19 00:59:29;;;;;;;25.93;18.60;;;12.20;95.00;;;;;;5016578;28;20464;-80
2023/10/19 01:02:03;;;;;;;34.20;18.93;;;12.20;96.80;;;;;;5015958;28;20517;-81
2023/10/19 01:04:34;;;;;;;29.77;19.70;;;12.20;98.50;;;;;;5018189;28;20495;-81
2023/10/19 01:07:07;;;;;;;29.93;19.50;;;12.20;99.00;;;;;;5018345;28;20448;-81
2023/10/19 01:09:36;;;;;;;35.53;18.00;;;12.20;99.40;;;;;;5017195;28;20553;-80
2023/10/19 01:12:25;;;;;;;26.80;17.80;;;12.20;99.90;;;;;;5018525;28;20433;-81
2023/10/19 01:15:20;;;;;;;24.67;16.90;;;12.30;99.90;;;;;;5017685;28;20465;-80
2023/10/19 01:17:51;;;;;;;23.97;16.57;;;12.30;99.90;;;;;;5016257;28;20513;-80
2023/10/19 01:25:59;;;;;;;24.20;16.60;;;12.40;99.90;;;;;;5016618;28;20462;-80
2023/10/19 01:28:42;;;;;;;18.90;14.03;;;12.50;99.90;;;;;;5028237;28;20430;-81
2023/10/19 01:31:14;;;;;;;16.37;12.53;;;12.60;99.90;;;;;;5018095;28;20433;-81
2023/10/19 01:33:41;;;;;;;19.80;13.30;;;12.60;99.90;;;;;;5015020;28;20430;-81
2023/10/19 01:36:10;;;;;;;20.53;12.23;;;12.70;99.90;;;;;;5015861;28;20461;-81
2023/10/19 01:38:37;;;;;;;11.70;8.73;;;12.80;99.90;;;;;;5018209;28;20418;-81
2023/10/19 01:41:13;;;;;;;10.30;7.23;;;13.00;99.90;;;;;;5017809;28;20435;-81
2023/10/19 01:43:43;;;;;;;10.53;6.60;;;13.10;99.90;;;;;;5018040;28;20422;-81
2023/10/19 01:46:12;;;;;;;12.93;6.97;;;13.30;99.90;;;;;;5016871;28;20461;-81
2023/10/19 01:48:42;;;;;;;6.07;5.13;;;13.50;99.90;;;;;;5013724;28;20451;-81
2023/10/19 01:51:15;;;;;;;10.03;5.13;;;13.60;99.90;;;;;;5014259;28;20434;-81
2023/10/19 01:53:44;;;;;;;6.40;4.00;;;13.70;99.90;;;;;;5016795;28;20457;-81
2023/10/19 01:56:12;;;;;;;6.50;3.87;;;13.80;99.90;;;;;;5016716;28;20473;-81
2023/10/19 01:58:39;;;;;;;5.93;3.57;;;13.90;99.90;;;;;;5019642;28;20442;-81
2023/10/19 02:01:14;;;;;;;6.77;3.40;;;14.00;99.90;;;;;;5018499;28;20445;-81
2023/10/19 02:03:42;;;;;;;4.43;2.87;;;14.10;99.90;;;;;;5017318;28;20434;-81
2023/10/19 02:06:19;;;;;;;4.63;2.80;;;14.20;99.90;;;;;;5014613;28;20560;-81
2023/10/19 02:08:56;;;;;;;7.70;2.50;;;14.20;99.90;;;;;;5019170;28;20858;-80
2023/10/19 02:11:22;;;;;;;5.83;2.47;;;14.30;99.90;;;;;;5016734;28;20938;-81
2023/10/19 02:13:50;;;;;;;3.37;3.07;;;14.40;99.90;;;;;;5015833;28;20500;-81
2023/10/19 02:16:19;;;;;;;8.53;2.20;;;14.50;99.90;;;;;;5017214;28;20449;-80
2023/10/19 02:18:45;;;;;;;13.47;3.70;;;14.50;99.90;;;;;;5017001;28;20449;-81
2023/10/19 02:21:12;;;;;;;6.87;2.40;;;14.60;99.90;;;;;;5016934;28;20446;-81
2023/10/19 02:23:39;;;;;;;9.70;2.80;;;14.70;99.90;;;;;;5012676;28;20175;-81
2023/10/19 02:26:05;;;;;;;6.23;2.90;;;14.70;99.90;;;;;;5017412;28;20528;-81
2023/10/19 02:28:31;;;;;;;5.87;2.30;;;14.80;98.40;;;;;;5016276;28;20434;-81
2023/10/19 02:31:03;;;;;;;6.17;2.90;;;14.80;97.00;;;;;;5018075;28;20450;-81
2023/10/19 02:33:29;;;;;;;8.67;2.70;;;14.80;96.10;;;;;;5019020;28;20796;-81
2023/10/19 02:35:57;;;;;;;6.33;2.50;;;14.80;95.10;;;;;;5025627;28;20485;-80
2023/10/19 02:38:22;;;;;;;3.37;2.47;;;14.80;94.20;;;;;;5023936;28;20441;-81
2023/10/19 02:40:48;;;;;;;8.17;2.40;;;14.90;93.00;;;;;;5021847;28;20445;-81
2023/10/19 02:43:13;;;;;;;4.00;2.00;;;14.90;91.10;;;;;;5014961;28;20175;-80
2023/10/19 02:45:38;;;;;;;2.77;2.03;;;14.90;85.30;;;;;;5012875;28;20211;-79
2023/10/19 02:48:04;;;;;;;3.17;1.83;;;15.00;79.50;;;;;;5016150;28;20267;-80
2023/10/19 02:50:30;;;;;;;2.03;1.47;;;15.00;68.70;;;;;;5015867;28;20180;-80
2023/10/19 02:52:56;;;;;;;5.67;1.87;;;15.10;64.00;;;;;;5015755;28;20187;-80
2023/10/19 02:55:24;;;;;;;2.37;1.30;;;15.10;56.00;;;;;;5012750;28;20298;-79
2023/10/19 02:57:50;;;;;;;2.20;1.40;;;15.10;51.30;;;;;;5012381;28;20512;-80
2023/10/19 03:00:19;;;;;;;3.50;1.30;;;15.10;46.30;;;;;;5013649;28;20530;-80
2023/10/19 03:02:46;;;;;;;6.63;1.47;;;15.10;42.20;;;;;;5013597;28;20430;-79
2023/10/19 03:05:15;;;;;;;5.50;1.70;;;15.10;41.60;;;;;;5011497;28;20466;-79
2023/10/19 03:07:44;;;;;;;3.40;1.30;;;15.10;42.80;;;;;;5012119;28;20947;-80
2023/10/19 03:13:15;;;;;;;5.37;1.47;;;15.10;40.50;;;;;;4964559;28;20460;-79
2023/10/19 03:15:42;;;;;;;5.40;1.53;;;15.10;40.90;;;;;;5001860;28;20814;-80
2023/10/19 03:18:08;;;;;;;2.90;1.50;;;15.10;36.40;;;;;;5011564;28;20466;-79
2023/10/19 03:20:33;;;;;;;6.13;1.50;;;15.20;35.30;;;;;;5012001;28;20466;-79
2023/10/19 03:23:02;;;;;;;3.23;2.00;;;15.10;35.30;;;;;;5013084;28;20770;-79
2023/10/19 03:28:12;;;;;;;3.00;1.47;;;15.20;34.60;;;;;;5011127;28;20507;-80
2023/10/19 03:30:40;;;;;;;4.03;2.03;;;15.20;30.10;;;;;;5011902;28;20426;-79
2023/10/19 03:33:11;;;;;;;5.23;1.63;;;15.20;29.40;;;;;;5014592;28;20509;-78
2023/10/19 03:35:38;;;;;;;5.80;2.10;;;15.20;29.90;;;;;;5014873;28;20454;-78
2023/10/19 03:38:14;;;;;;;2.97;1.50;;;15.20;36.20;;;;;;5005605;28;20433;-80
2023/10/19 03:40:39;;;;;;;3.90;1.27;;;15.20;33.90;;;;;;5015057;28;20434;-80
2023/10/19 03:43:16;;;;;;;4.83;1.20;;;15.20;27.20;;;;;;5007656;28;20603;-80
2023/10/19 03:45:48;;;;;;;3.83;1.30;;;15.20;27.70;;;;;;5008948;28;20210;-80
2023/10/19 03:48:16;;;;;;;4.27;1.40;;;15.10;28.90;;;;;;5012903;28;20822;-80
2023/10/19 03:50:42;;;;;;;7.20;1.60;;;15.10;25.90;;;;;;5018154;28;20996;-80
2023/10/19 03:53:12;;;;;;;3.67;1.37;;;15.10;24.00;;;;;;5014542;28;20464;-79
2023/10/19 03:55:38;;;;;;;2.43;1.30;;;15.00;23.70;;;;;;5009951;28;20508;-80
2023/10/19 03:58:04;;;;;;;4.57;2.00;;;15.00;20.80;;;;;;5016387;28;20426;-80
2023/10/19 04:00:33;;;;;;;1.33;1.17;;;14.90;16.40;;;;;;5008919;28;20454;-80
2023/10/19 04:02:59;;;;;;;3.23;1.73;;;14.80;19.80;;;;;;5008876;28;20426;-80
2023/10/19 04:05:25;;;;;;;5.07;1.70;;;14.70;22.80;;;;;;5018159;28;20500;-79
2023/10/19 04:07:55;;;;;;;3.13;1.50;;;14.60;25.50;;;;;;5028632;28;20528;-80
2023/10/19 04:10:29;;;;;;;3.07;1.60;;;14.60;28.00;;;;;;5006358;28;20434;-80
2023/10/19 04:12:55;;;;;;;5.73;1.70;;;14.60;32.80;;;;;;5013042;28;20999;-80
2023/10/19 04:15:21;;;;;;;2.80;1.57;;;14.60;35.80;;;;;;5008488;28;20458;-80
2023/10/19 04:17:48;;;;;;;4.47;1.60;;;14.60;41.50;;;;;;5007511;28;20179;-80
2023/10/19 04:22:42;;;;;;;3.80;1.77;;;14.70;43.50;;;;;;5010868;28;20514;-80
2023/10/19 04:25:13;;;;;;;4.60;1.80;;;14.70;42.20;;;;;;5014824;28;20496;-80
2023/10/19 04:27:43;;;;;;;5.70;2.37;;;14.70;42.20;;;;;;5010995;28;20439;-80
2023/10/19 04:30:16;;;;;;;6.83;2.37;;;14.80;42.80;;;;;;5006731;28;20443;-80
2023/10/19 04:32:42;;;;;;;4.90;1.83;;;14.80;43.70;;;;;;5008283;28;20431;-79
2023/10/19 04:35:09;;;;;;;7.37;2.10;;;14.80;43.70;;;;;;5013756;28;20453;-79
2023/10/19 04:37:35;;;;;;;4.77;2.67;;;14.90;43.40;;;;;;5007345;28;20437;-80
2023/10/19 04:40:00;;;;;;;7.07;2.73;;;14.90;44.30;;;;;;5013263;28;20437;-79
2023/10/19 04:42:27;;;;;;;9.03;3.83;;;14.90;41.50;;;;;;5011777;28;20883;-80
2023/10/19 04:44:56;;;;;;;10.77;4.20;;;14.80;27.40;;;;;;5003564;28;20295;-80
2023/10/19 04:47:22;;;;;;;8.10;4.67;;;14.80;21.40;;;;;;5000956;28;20437;-80
2023/10/19 04:49:47;;;;;;;6.57;4.70;;;14.70;16.70;;;;;;5009708;28;20438;-80
2023/10/19 04:52:13;;;;;;;12.07;5.50;;;14.70;11.60;;;;;;5013485;28;20963;-80
2023/10/19 04:54:38;;;;;;;6.83;3.83;;;14.70;16.30;;;;;;5008370;28;20833;-80
2023/10/19 04:57:04;;;;;;;8.20;4.97;;;14.60;16.30;;;;;;5017475;28;20194;-80
2023/10/19 04:59:33;;;;;;;6.30;4.63;;;14.60;11.90;;;;;;5021654;28;20177;-80
2023/10/19 05:02:00;;;;;;;6.73;5.83;;;14.50;4.40;;;;;;5015117;28;20524;-79
2023/10/19 05:04:27;;;;;;;12.87;4.90;;;14.50;6.00;;;;;;5013327;28;20474;-79
2023/10/19 05:06:53;;;;;;;16.30;5.50;;;14.40;8.30;;;;;;5014061;28;20434;-80
2023/10/19 05:09:18;;;;;;;6.80;5.40;;;14.30;7.10;;;;;;5010294;28;20434;-79
2023/10/19 05:11:45;;;;;;;7.80;4.70;;;14.30;9.90;;;;;;5010179;28;20188;-79
2023/10/19 05:14:14;;;;;;;8.93;5.50;;;14.20;8.10;;;;;;5018337;28;20214;-79
2023/10/19 05:16:42;;;;;;;7.10;4.50;;;14.20;11.20;;;;;;5022053;28;20454;-80
2023/10/19 05:19:07;;;;;;;7.13;5.23;;;14.10;15.50;;;;;;5013895;28;20855;-80
2023/10/19 05:21:34;;;;;;;8.63;5.20;;;14.10;15.80;;;;;;5012360;28;20469;-79
2023/10/19 05:24:00;;;;;;;6.97;4.87;;;14.10;20.70;;;;;;5009712;28;20267;-79
2023/10/19 05:26:26;;;;;;;9.30;5.00;;;14.10;21.40;;;;;;5002641;28;20442;-80
2023/10/19 05:28:52;;;;;;;6.50;4.47;;;14.20;25.90;;;;;;5004462;28;20461;-80
2023/10/19 05:31:17;;;;;;;7.60;4.33;;;14.20;26.40;;;;;;5013941;28;20446;-79
2023/10/19 05:33:43;;;;;;;5.90;4.90;;;14.20;27.00;;;;;;5010639;28;20233;-79
2023/10/19 05:36:09;;;;;;;7.27;4.83;;;14.20;24.60;;;;;;5018521;28;20219;-80
2023/10/19 05:38:34;;;;;;;9.50;4.90;;;14.20;22.90;;;;;;5007090;28;20188;-79
2023/10/19 05:41:00;;;;;;;8.30;4.53;;;14.20;19.50;;;;;;5002727;28;20649;-79
2023/10/19 05:43:26;;;;;;;11.30;6.03;;;14.20;19.80;;;;;;5007059;28;20232;-79
2023/10/19 05:45:51;;;;;;;8.70;4.40;;;14.20;20.60;;;;;;5019786;28;20215;-79
2023/10/19 05:48:17;;;;;;;6.43;3.67;;;14.20;22.70;;;;;;5017236;28;21028;-79
2023/10/19 05:50:43;;;;;;;8.23;3.87;;;14.20;24.50;;;;;;5015196;28;20197;-79
2023/10/19 05:53:09;;;;;;;13.03;5.00;;;14.20;23.40;;;;;;5006193;28;20597;-79
2023/10/19 05:55:35;;;;;;;5.67;4.03;;;14.20;23.60;;;;;;5002038;28;20497;-80
2023/10/19 05:58:04;;;;;;;5.87;4.10;;;14.20;25.70;;;;;;5014733;28;20271;-79
2023/10/19 06:00:30;;;;;;;11.90;4.47;;;14.20;23.70;;;;;;5017352;28;20441;-79
2023/10/19 06:02:57;;;;;;;7.67;4.20;;;14.20;21.70;;;;;;5012268;28;20445;-80
2023/10/19 06:05:23;;;;;;;5.07;4.57;;;14.20;21.40;;;;;;5018778;28;20498;-79
2023/10/19 06:07:49;;;;;;;6.47;4.40;;;14.20;22.30;;;;;;5014091;28;20437;-78
2023/10/19 06:10:20;;;;;;;7.33;3.90;;;14.30;24.80;;;;;;5010928;28;20457;-80
2023/10/19 06:12:47;;;;;;;7.33;4.37;;;14.30;26.50;;;;;;5011670;28;20798;-79
2023/10/19 06:15:14;;;;;;;6.43;3.47;;;14.40;25.00;;;;;;5011007;28;21058;-79
2023/10/19 06:17:41;;;;;;;6.97;3.23;;;14.50;23.00;;;;;;5021314;28;20531;-79
2023/10/19 06:20:23;;;;;;;6.23;3.50;;;14.50;16.90;;;;;;5027227;28;20437;-79
2023/10/19 06:22:53;;;;;;;6.03;3.60;;;14.60;14.90;;;;;;5002706;28;20434;-80
2023/10/19 06:25:23;;;;;;;7.47;3.60;;;14.60;11.20;;;;;;5011119;28;20482;-79
2023/10/19 06:27:50;;;;;;;6.20;3.80;;;14.60;7.90;;;;;;5010016;28;20905;-79
2023/10/19 06:30:22;;;;;;;4.80;3.83;;;14.70;1.00;;;;;;5002541;28;20457;-78
2023/10/19 06:32:50;;;;;;;4.60;3.53;;;14.70;1.00;;;;;;4999736;28;21137;-79
2023/10/19 06:35:16;;;;;;;8.37;4.23;;;14.70;1.00;;;;;;5008967;28;20545;-79
2023/10/19 06:37:42;;;;;;;6.50;4.00;;;14.70;1.00;;;;;;5003074;28;20470;-80
2023/10/19 06:40:08;;;;;;;8.20;3.70;;;14.70;1.00;;;;;;5007760;28;20498;-80
2023/10/19 06:42:35;;;;;;;6.63;4.20;;;14.70;1.00;;;;;;5015439;28;20417;-80
2023/10/19 06:45:01;;;;;;;8.47;4.13;;;14.70;1.00;;;;;;5012461;28;20458;-80
2023/10/19 06:47:28;;;;;;;6.30;4.40;;;14.70;1.00;;;;;;5017707;28;20411;-80
2023/10/19 06:49:54;;;;;;;8.87;5.00;;;14.70;1.00;;;;;;5016088;28;20461;-80
2023/10/19 06:52:19;;;;;;;9.77;5.10;;;14.70;1.00;;;;;;5012759;28;20442;-79
2023/10/19 06:54:45;;;;;;;6.83;4.90;;;14.70;1.00;;;;;;5016821;28;20199;-80
2023/10/19 06:57:10;;;;;;;5.20;4.27;;;14.80;1.00;;;;;;5016684;28;20190;-80
2023/10/19 06:59:36;;;;;;;7.17;5.10;;;14.80;1.00;;;;;;5011024;28;20198;-80
2023/10/19 07:02:02;;;;;;;6.33;4.23;;;14.80;1.00;;;;;;5013062;28;20266;-81
2023/10/19 07:04:29;;;;;;;8.73;4.80;;;14.80;1.00;;;;;;5009557;28;20462;-80
2023/10/19 07:06:54;;;;;;;11.30;4.60;;;14.80;1.00;;;;;;5017035;28;20186;-79
2023/10/19 07:09:21;;;;;;;5.77;3.77;;;14.80;1.00;;;;;;5010230;28;20444;-79
2023/10/19 07:11:46;;;;;;;7.57;4.23;;;14.90;1.00;;;;;;5015418;28;20179;-79
2023/10/19 07:14:12;;;;;;;7.60;4.53;;;15.00;1.00;;;;;;5014222;28;20465;-80
2023/10/19 07:16:41;;;;;;;6.10;4.30;;;15.10;1.00;;;;;;5016725;28;20274;-79
2023/10/19 07:19:09;;;;;;;6.50;4.13;;;15.20;1.00;;;;;;5016676;28;20442;-79
2023/10/19 07:21:36;;;;;;;6.00;4.10;;;15.30;1.00;;;;;;5016285;28;20419;-80
2023/10/19 07:24:05;;;;;;;7.03;3.57;;;15.30;1.00;;;;;;5014182;28;20853;-79
2023/10/19 07:26:33;;;;;;;4.10;3.53;;;15.30;1.00;;;;;;5015653;28;20692;-80
2023/10/19 07:28:59;;;;;;;4.63;3.10;;;15.40;1.00;;;;;;5015791;28;20438;-80
2023/10/19 07:31:27;;;;;;;6.00;4.07;;;15.60;1.00;;;;;;5014057;28;20454;-80
2023/10/19 07:33:55;;;;;;;5.10;3.37;;;15.70;1.00;;;;;;5013994;28;20466;-79
2023/10/19 07:36:20;;;;;;;6.00;3.50;;;16.00;1.00;;;;;;5016474;28;20914;-79
2023/10/19 07:38:47;;;;;;;7.77;3.10;;;16.30;1.00;;;;;;5016545;28;20556;-79
2023/10/19 07:41:13;;;;;;;5.40;2.73;;;17.00;1.00;;;;;;5006639;28;20672;-79
2023/10/19 07:43:39;;;;;;;8.30;2.67;;;17.90;1.00;;;;;;5014666;28;20419;-80
2023/10/19 07:46:04;;;;;;;3.23;2.50;;;18.20;99.90;;;;;;5023744;28;20290;-79
2023/10/19 07:48:30;;;;;;;6.20;3.07;;;18.20;99.90;;;;;;5015927;28;20473;-79
2023/10/19 07:50:55;;;;;;;9.40;3.20;;;18.10;99.90;;;;;;5017188;28;20187;-80
2023/10/19 07:53:21;;;;;;;8.90;2.70;;;18.00;49.00;;;;;;5017074;28;20181;-79
2023/10/19 07:55:47;;;;;;;9.30;2.77;;;18.20;1.00;;;;;;5016620;28;20221;-79
2023/10/19 07:58:13;;;;;;;4.70;2.60;;;18.40;1.00;;;;;;5021179;28;20967;-79
2023/10/19 08:00:38;;;;;;;5.60;3.10;;;18.50;99.90;;;;;;5011217;28;20198;-80
2023/10/19 08:03:05;;;;;;;8.53;3.67;;;18.30;99.90;;;;;;5013856;28;20196;-79
2023/10/19 08:05:33;;;;;;;6.10;3.37;;;18.00;99.90;;;;;;5013724;28;20302;-79
2023/10/19 08:08:00;;;;;;;6.80;2.70;;;17.90;1.00;;;;;;5016792;28;20466;-79
2023/10/19 08:10:26;;;;;;;4.77;2.90;;;17.80;1.00;;;;;;5014897;28;20807;-79
2023/10/19 08:12:52;;;;;;;4.40;2.50;;;17.70;99.90;;;;;;5017000;28;20430;-79
2023/10/19 08:15:20;;;;;;;8.80;4.43;;;17.90;58.60;;;;;;5012693;28;20476;-79
2023/10/19 08:17:48;;;;;;;9.83;4.03;;;18.20;99.90;;;;;;5012662;28;20469;-79
2023/10/19 08:20:22;;;;;;;8.33;4.57;;;18.70;99.90;;;;;;5015109;28;20447;-79
2023/10/19 08:22:51;;;;;;;4.07;3.20;;;19.20;88.80;;;;;;5008606;28;20768;-79
2023/10/19 08:25:17;;;;;;;7.00;3.30;;;19.60;99.90;;;;;;5015324;28;21033;-79
2023/10/19 08:27:50;;;;;;;6.47;3.00;;;20.60;99.90;;;;;;5013955;28;20434;-80
2023/10/19 08:30:21;;;;;;;5.67;2.53;;;22.20;1.00;;;;;;5017719;28;20190;-80
2023/10/19 08:32:47;;;;;;;4.53;2.30;;;23.70;1.00;;;;;;5014865;28;20978;-79
2023/10/19 08:35:24;;;;;;;5.30;2.70;;;23.70;1.00;;;;;;5010385;28;20527;-80
2023/10/19 08:37:49;;;;;;;11.40;3.10;;;25.00;1.00;;;;;;5010407;28;20450;-79
2023/10/19 08:40:15;;;;;;;6.93;1.90;;;27.10;1.00;;;;;;5010208;28;21079;-80
2023/10/19 08:42:42;;;;;;;7.10;2.43;;;28.80;1.00;;;;;;5012564;28;20198;-80
2023/10/19 08:45:09;;;;;;;6.93;1.80;;;30.30;1.00;;;;;;5012868;28;20210;-80
2023/10/19 08:47:37;;;;;;;4.97;1.43;;;32.10;1.00;;;;;;5010702;28;20434;-80
2023/10/19 08:50:04;;;;;;;5.43;2.23;;;33.80;1.00;;;;;;5011610;28;20434;-79
2023/10/19 08:52:32;;;;;;;3.60;2.40;;;34.00;1.00;;;;;;4998479;28;20439;-80
2023/10/19 08:54:57;;;;;;;5.57;2.60;;;34.50;1.00;;;;;;5015237;28;20461;-80
2023/10/19 08:57:23;;;;;;;8.40;1.70;;;34.90;1.00;;;;;;5015249;28;20470;-80
2023/10/19 08:59:49;;;;;;;3.83;1.90;;;35.50;1.00;;;;;;5016615;28;20191;-80
2023/10/19 09:02:16;;;;;;;5.43;1.77;;;35.60;1.00;;;;;;5006892;28;20186;-80
2023/10/19 09:04:46;;;;;;;8.23;1.67;;;35.80;1.00;;;;;;5015934;28;20286;-80
2023/10/19 09:07:11;;;;;;;6.00;1.70;;;36.00;1.00;;;;;;5020261;28;20465;-79
2023/10/19 09:09:40;;;;;;;8.30;2.43;;;34.40;99.90;;;;;;5004136;28;20920;-79
2023/10/19 09:12:07;;;;;;;5.67;1.80;;;32.60;99.90;;;;;;5013710;28;20275;-79
2023/10/19 09:14:36;;;;;;;6.77;2.33;;;31.10;99.90;;;;;;5014233;28;21019;-79
2023/10/19 09:17:03;;;;;;;3.87;1.60;;;31.70;99.90;;;;;;5013454;28;20448;-79
2023/10/19 09:19:36;;;;;;;7.03;1.60;;;32.50;99.90;;;;;;5012845;28;20441;-79
2023/10/19 09:22:07;;;;;;;14.70;3.10;;;34.30;99.90;;;;;;5014131;28;20437;-79
2023/10/19 09:24:37;;;;;;;6.97;2.40;;;34.10;99.90;;;;;;5013621;28;20469;-79
2023/10/19 09:27:03;;;;;;;5.00;1.60;;;35.00;99.90;;;;;;5015161;28;20430;-79
2023/10/19 09:29:31;;;;;;;3.17;1.50;;;34.90;99.90;;;;;;5012466;28;20808;-79
2023/10/19 09:32:02;;;;;;;6.40;1.70;;;35.70;99.90;;;;;;5013759;28;20441;-79
2023/10/19 09:34:31;;;;;;;7.93;2.70;;;34.90;99.90;;;;;;5003976;28;20468;-79
2023/10/19 09:37:00;;;;;;;6.20;2.03;;;35.40;99.90;;;;;;5012859;28;20426;-79
2023/10/19 09:39:34;;;;;;;4.23;1.30;;;35.40;99.90;;;;;;5011927;28;20557;-78
2023/10/19 09:42:10;;;;;;;4.70;1.87;;;36.40;99.90;;;;;;5015204;28;20526;-79
2023/10/19 09:44:44;;;;;;;3.77;1.57;;;34.10;99.90;;;;;;5015964;28;20554;-79
2023/10/19 09:47:12;;;;;;;5.57;1.70;;;32.30;99.90;;;;;;5010959;28;20428;-78
2023/10/19 09:49:39;;;;;;;6.37;1.73;;;30.70;99.90;;;;;;5017329;28;20418;-78
2023/10/19 09:52:06;;;;;;;8.37;2.77;;;28.90;99.90;;;;;;5004458;28;20463;-78
2023/10/19 09:54:47;;;;;;;4.07;1.47;;;27.60;99.90;;;;;;5011522;28;20531;-79
2023/10/19 09:57:18;;;;;;;6.13;2.03;;;26.60;99.90;;;;;;5015131;28;20445;-79
2023/10/19 09:59:49;;;;;;;8.30;2.40;;;25.90;99.90;;;;;;5017103;28;20480;-79
2023/10/19 10:02:17;;;;;;;12.47;1.83;;;25.00;99.90;;;;;;5016775;28;20453;-79
2023/10/19 10:04:47;;;;;;;7.53;2.07;;;24.50;99.90;;;;;;5016667;28;20477;-79
2023/10/19 10:07:13;;;;;;;6.37;1.80;;;24.20;99.90;;;;;;5008379;28;20461;-79
2023/10/19 10:09:43;;;;;;;9.40;2.63;;;24.00;99.90;;;;;;5008893;28;20434;-79
2023/10/19 10:12:21;;;;;;;6.10;2.17;;;24.10;99.90;;;;;;5009497;28;20446;-79
2023/10/19 10:14:58;;;;;;;5.87;2.20;;;24.10;99.90;;;;;;5015348;28;20461;-78
2023/10/19 10:17:26;;;;;;;10.33;2.80;;;24.10;99.90;;;;;;5015750;28;20402;-79
2023/10/19 10:20:14;;;;;;;6.43;2.27;;;24.40;99.90;;;;;;5015557;28;20956;-79
2023/10/19 10:22:43;;;;;;;9.27;2.30;;;26.20;99.90;;;;;;5016145;28;20522;-79
2023/10/19 10:25:26;;;;;;;5.63;2.10;;;28.60;99.90;;;;;;5011257;28;20467;-79
2023/10/19 10:27:52;;;;;;;9.23;2.00;;;30.70;99.90;;;;;;5016084;28;20540;-78
2023/10/19 10:30:17;;;;;;;6.30;2.00;;;30.20;99.90;;;;;;5012559;28;20501;-79
2023/10/19 10:32:48;;;;;;;12.87;2.27;;;29.50;99.90;;;;;;5012924;28;20567;-78
2023/10/19 10:35:36;;;;;;;10.20;1.70;;;29.60;99.90;;;;;;5009302;28;20206;-78
2023/10/19 10:38:05;;;;;;;7.07;2.43;;;28.40;99.90;;;;;;5007534;28;20555;-78
2023/10/19 10:40:31;;;;;;;6.10;2.03;;;27.60;99.90;;;;;;5013557;28;20436;-78
2023/10/19 10:43:06;;;;;;;6.00;1.90;;;27.00;99.90;;;;;;5012444;28;20446;-78
2023/10/19 10:45:32;;;;;;;10.23;2.57;;;27.00;99.90;;;;;;5013672;28;20478;-78
2023/10/19 10:48:00;;;;;;;8.17;1.77;;;26.80;99.90;;;;;;5014456;28;20465;-78
2023/10/19 10:50:28;;;;;;;13.80;2.23;;;26.20;99.90;;;;;;5009418;28;20179;-79
2023/10/19 10:52:57;;;;;;;6.70;1.63;;;25.90;99.90;;;;;;5009409;28;20530;-78
2023/10/19 10:55:26;;;;;;;7.07;1.67;;;26.00;99.90;;;;;;5014483;28;20465;-78
2023/10/19 10:57:54;;;;;;;7.13;2.27;;;25.40;99.90;;;;;;5014897;28;20870;-79
2023/10/19 11:00:20;;;;;;;6.40;2.27;;;24.80;99.90;;;;;;5014271;28;20477;-78
2023/10/19 11:02:49;;;;;;;7.67;2.37;;;24.50;99.90;;;;;;5013121;28;20442;-78
2023/10/19 11:05:16;;;;;;;5.17;2.17;;;24.20;99.90;;;;;;5007446;28;20474;-78
2023/10/19 11:08:02;;;;;;;7.90;2.37;;;24.00;99.90;;;;;;5006793;28;20441;-78
2023/10/19 11:10:29;;;;;;;5.67;1.53;;;24.10;99.90;;;;;;5013433;28;20434;-78
2023/10/19 11:13:08;;;;;;;5.27;1.80;;;24.10;99.90;;;;;;5011484;28;20517;-78
2023/10/19 11:15:36;;;;;;;7.40;1.97;;;23.90;99.90;;;;;;5010793;28;20478;-78
2023/10/19 11:18:03;;;;;;;8.00;2.40;;;24.90;99.90;;;;;;5013284;28;20810;-78
2023/10/19 11:20:28;;;;;;;7.50;2.23;;;24.70;99.90;;;;;;5007312;28;20430;-78
2023/10/19 11:22:56;;;;;;;8.43;2.17;;;24.70;99.90;;;;;;5013943;28;20452;-79
2023/10/19 11:25:28;;;;;;;4.33;2.17;;;24.50;99.90;;;;;;5009811;28;20222;-78
2023/10/19 11:27:58;;;;;;;7.50;1.93;;;24.20;99.90;;;;;;5013065;28;20430;-78
2023/10/19 11:30:25;;;;;;;11.43;2.87;;;23.80;99.90;;;;;;5011433;28;20434;-78
2023/10/19 11:32:52;;;;;;;6.90;2.30;;;23.50;99.90;;;;;;5012637;28;20549;-78
2023/10/19 11:35:19;;;;;;;4.30;1.97;;;23.30;99.90;;;;;;5008795;28;20469;-78
2023/10/19 11:37:49;;;;;;;8.13;2.17;;;23.00;99.90;;;;;;5012885;28;20848;-78
2023/10/19 11:40:15;;;;;;;8.50;2.57;;;22.70;99.90;;;;;;5012651;28;20525;-78
2023/10/19 11:42:41;;;;;;;10.53;2.13;;;22.50;99.90;;;;;;5011067;28;20541;-78
2023/10/19 11:45:07;;;;;;;8.77;1.80;;;22.40;99.90;;;;;;5013475;28;20219;-79
2023/10/19 11:47:33;;;;;;;10.73;2.43;;;22.50;1.00;;;;;;5012895;28;20266;-78
2023/10/19 11:49:58;;;;;;;8.10;2.30;;;22.40;1.00;;;;;;5012263;28;20517;-78
2023/10/19 11:52:24;;;;;;;10.87;2.77;;;22.20;1.00;;;;;;5005052;28;20238;-78
2023/10/19 11:54:49;;;;;;;6.83;2.50;;;22.20;1.00;;;;;;5013296;28;20227;-78
2023/10/19 11:57:15;;;;;;;6.17;2.17;;;22.20;1.00;;;;;;5011582;28;20206;-78
2023/10/19 11:59:40;;;;;;;10.83;2.43;;;22.00;1.00;;;;;;5008317;28;20192;-78
2023/10/19 12:02:06;;;;;;;6.67;2.40;;;21.80;1.00;;;;;;5011785;28;20265;-78
2023/10/19 12:04:36;;;;;;;6.00;1.93;;;21.70;1.00;;;;;;5010646;28;20203;-78
2023/10/19 12:07:02;;;;;;;11.77;2.37;;;21.60;1.00;;;;;;5002531;28;20452;-78
2023/10/19 12:09:30;;;;;;;4.60;1.57;;;21.50;1.00;;;;;;5010089;28;20468;-78
2023/10/19 12:11:56;;;;;;;9.17;2.50;;;21.50;1.00;;;;;;5004400;28;20867;-78
2023/10/19 12:14:22;;;;;;;5.60;2.40;;;21.20;1.00;;;;;;5013128;28;20434;-78
2023/10/19 12:16:48;;;;;;;5.50;2.30;;;21.10;18.00;;;;;;5009612;28;20525;-77
2023/10/19 12:19:14;;;;;;;6.50;2.57;;;21.10;14.80;;;;;;5013740;28;20447;-78
2023/10/19 12:21:41;;;;;;;7.07;2.60;;;21.10;1.00;;;;;;5010134;28;20229;-78
2023/10/19 12:24:07;;;;;;;8.03;1.93;;;20.90;53.90;;;;;;5012074;28;20445;-78
2023/10/19 12:26:33;;;;;;;9.60;2.30;;;20.70;99.90;;;;;;5011206;28;20449;-78
2023/10/19 12:28:59;;;;;;;6.13;2.33;;;20.70;99.90;;;;;;5002178;28;20446;-78
2023/10/19 12:31:25;;;;;;;7.00;2.63;;;20.70;99.90;;;;;;5005409;28;20198;-78
2023/10/19 12:33:51;;;;;;;10.00;2.47;;;20.60;99.90;;;;;;5004666;28;20183;-78
2023/10/19 12:36:31;;;;;;;8.47;2.70;;;20.50;99.90;;;;;;5013342;28;20460;-78
2023/10/19 12:38:57;;;;;;;6.33;2.07;;;20.40;99.90;;;;;;5013048;28;20179;-78
2023/10/19 12:41:23;;;;;;;12.77;2.20;;;20.30;99.90;;;;;;5015543;28;20437;-78
2023/10/19 12:43:52;;;;;;;9.27;2.70;;;20.40;99.90;;;;;;5008603;28;20479;-79
2023/10/19 12:46:19;;;;;;;8.43;2.70;;;20.50;99.90;;;;;;5013506;28;20470;-79
2023/10/19 12:48:46;;;;;;;6.60;2.20;;;20.50;99.90;;;;;;5015670;28;21218;-79
2023/10/19 12:51:13;;;;;;;10.20;2.70;;;20.50;99.90;;;;;;5018729;28;20795;-79
2023/10/19 12:53:39;;;;;;;8.43;2.60;;;20.60;99.90;;;;;;5018483;28;20508;-78
2023/10/19 12:56:05;;;;;;;18.73;3.07;;;20.60;99.90;;;;;;5019963;28;21016;-78
2023/10/19 12:58:31;;;;;;;4.80;1.93;;;20.50;99.90;;;;;;5013261;28;20188;-78
2023/10/19 13:00:58;;;;;;;9.80;2.40;;;20.50;99.90;;;;;;5018578;28;20426;-78
2023/10/19 13:03:27;;;;;;;8.53;2.70;;;20.30;1.00;;;;;;5019445;28;20461;-78
2023/10/19 13:05:53;;;;;;;10.93;3.00;;;20.40;1.00;;;;;;5017922;28;20523;-78
2023/10/19 13:08:19;;;;;;;13.87;3.23;;;20.20;1.00;;;;;;5016228;28;20449;-78
2023/10/19 13:10:47;;;;;;;10.37;3.37;;;20.20;1.00;;;;;;5017342;28;20463;-79
2023/10/19 13:13:17;;;;;;;8.23;3.07;;;20.10;35.20;;;;;;5015617;28;20441;-79